Time;durP1;ratioP1;P1;durP2;ratioP2;P2;SDS_P1;SDS_P2;PMS_P1;PMS_P2;Temp;Humidity;BMP_temperature;BMP_pressure;BME280_temperature;BME280_humidity;BME280_pressure;Samples;Min_cycle;Max_cycle;Signal;HPM_P1;HPM_P2
2022/11/05 00:10:45;;;;;;;;;;;;;;;10.10;100.00;101342.41;5058255;28;1291;-82
2022/11/05 00:18:40;;;;;;;;;;;;;;;9.95;100.00;101338.16;5078479;28;609;-82
2022/11/05 00:25:12;;;;;;;;;;;;;;;9.93;100.00;101343.63;5075525;28;2842;-82
2022/11/05 00:26:36;;;;;;;;;;;;;;;9.91;100.00;101345.53;5077847;28;1110;-82
2022/11/05 00:29:02;;;;;;;;;;;;;;;9.94;100.00;101345.34;5044778;28;2568;-82
2022/11/05 00:31:28;;;;;;;;;;;;;;;9.98;100.00;101352.19;5039112;28;1303;-82
2022/11/05 00:33:54;;;;;;;;;;;;;;;9.97;100.00;101354.97;5057371;28;744;-82
2022/11/05 00:36:20;;;;;;;;;;;;;;;9.94;100.00;101350.69;5057966;28;935;-82
2022/11/05 00:38:46;;;;;;;;;;;;;;;9.91;100.00;101358.06;5057623;28;760;-82
2022/11/05 00:41:12;;;;;;;;;;;;;;;9.84;100.00;101359.47;5069882;28;2639;-82
2022/11/05 00:46:22;;;;;;;;;;;;;;;9.60;100.00;101368.22;5077400;28;1374;-82
2022/11/05 00:51:32;;;;;;;;;;;;;;;9.55;100.00;101385.59;5077345;28;1338;-82
2022/11/05 00:53:58;;;;;;;;;;;;;;;9.60;100.00;101378.06;5076735;28;759;-83
2022/11/05 00:56:24;;;;;;;;;;;;;;;9.66;100.00;101391.06;5077287;28;815;-82
2022/11/05 00:58:50;;;;;;;;;;;;;;;9.53;100.00;101385.66;5076924;28;932;-82
2022/11/05 01:01:16;;;;;;;;;;;;;;;9.66;100.00;101383.03;5076669;28;1928;-82
2022/11/05 01:03:42;;;;;;;;;;;;;;;9.53;100.00;101387.47;5080582;28;751;-82
2022/11/05 01:06:10;;;;;;;;;;;;;;;9.47;100.00;101381.59;5081396;28;759;-82
2022/11/05 01:08:36;;;;;;;;;;;;;;;9.53;100.00;101387.47;5081204;28;874;-82
2022/11/05 01:11:11;;;;;;;;;;;;;;;9.44;100.00;101383.63;5080929;28;1275;-82
2022/11/05 01:13:39;;;;;;;;;;;;;;;9.34;100.00;101379.81;5062608;28;920;-82
2022/11/05 01:16:07;;;;;;;;;;;;;;;9.38;100.00;101379.53;5080631;28;2360;-82
2022/11/05 01:18:36;;;;;;;;;;;;;;;9.17;100.00;101384.50;5081096;28;772;-82
2022/11/05 01:21:13;;;;;;;;;;;;;;;9.35;100.00;101381.56;5080536;28;1898;-82
2022/11/05 01:23:39;;;;;;;;;;;;;;;9.38;100.00;101384.88;5081168;28;1299;-82
2022/11/05 01:26:05;;;;;;;;;;;;;;;9.45;100.00;101388.88;5081058;28;809;-82
2022/11/05 01:28:31;;;;;;;;;;;;;;;9.49;100.00;101387.69;5062024;28;903;-82
2022/11/05 01:30:57;;;;;;;;;;;;;;;9.52;100.00;101389.31;5080148;28;1288;-82
2022/11/05 01:33:24;;;;;;;;;;;;;;;9.39;100.00;101385.75;5081001;28;735;-82
2022/11/05 01:35:50;;;;;;;;;;;;;;;9.39;100.00;101388.41;5080711;28;878;-82
2022/11/05 01:38:17;;;;;;;;;;;;;;;9.29;100.00;101390.00;5080634;28;1039;-82
2022/11/05 01:40:44;;;;;;;;;;;;;;;9.28;100.00;101389.13;5080276;28;1945;-82
2022/11/05 01:43:16;;;;;;;;;;;;;;;9.34;100.00;101394.09;5080782;28;826;-82
2022/11/05 01:45:43;;;;;;;;;;;;;;;9.39;100.00;101391.94;5080356;28;824;-82
2022/11/05 01:48:24;;;;;;;;;;;;;;;9.43;100.00;101393.44;5080240;28;795;-82
2022/11/05 01:51:07;;;;;;;;;;;;;;;9.47;100.00;101386.94;5080022;28;1267;-82
2022/11/05 01:53:37;;;;;;;;;;;;;;;9.48;100.00;101385.97;5096372;28;912;-82
2022/11/05 01:56:18;;;;;;;;;;;;;;;9.49;100.00;101390.38;5080764;28;823;-82
2022/11/05 01:58:53;;;;;;;;;;;;;;;9.53;100.00;101374.09;5080714;28;547;-82
2022/11/05 02:01:19;;;;;;;;;;;;;;;9.54;100.00;101376.69;5079850;28;1937;-82
2022/11/05 02:03:47;;;;;;;;;;;;;;;9.54;100.00;101389.19;5080316;28;885;-82
2022/11/05 02:06:18;;;;;;;;;;;;;;;9.49;100.00;101385.00;5095242;28;885;-82
2022/11/05 02:09:01;;;;;;;;;;;;;;;9.43;100.00;101388.09;5080527;28;556;-82
2022/11/05 02:11:28;;;;;;;;;;;;;;;9.42;100.00;101388.19;5080482;28;1284;-82
2022/11/05 02:13:54;;;;;;;;;;;;;;;9.26;100.00;101396.41;5063347;28;749;-82
2022/11/05 02:16:23;;;;;;;;;;;;;;;9.23;100.00;101398.41;5081528;28;2369;-82
2022/11/05 02:19:11;;;;;;;;;;;;;;;9.23;100.00;101388.56;5064172;28;905;-82
2022/11/05 02:22:01;;;;;;;;;;;;;;;9.16;100.00;101401.50;5063178;28;1886;-82
2022/11/05 02:25:09;;;;;;;;;;;;;;;9.18;100.00;101394.22;5081528;28;601;-82
2022/11/05 02:27:53;;;;;;;;;;;;;;;9.20;100.00;101386.97;5067338;28;1063;-82
2022/11/05 02:30:37;;;;;;;;;;;;;;;9.22;100.00;101399.38;5081253;28;1295;-82
2022/11/05 02:33:19;;;;;;;;;;;;;;;9.17;100.00;101397.03;5063579;28;989;-82
2022/11/05 02:36:22;;;;;;;;;;;;;;;9.11;100.00;101402.75;5063081;28;755;-82
2022/11/05 02:38:51;;;;;;;;;;;;;;;9.02;100.00;101409.56;5081447;28;531;-82
2022/11/05 02:41:32;;;;;;;;;;;;;;;9.06;100.00;101407.56;5081086;28;1914;-82
2022/11/05 02:44:24;;;;;;;;;;;;;;;9.14;100.00;101406.13;5081304;28;613;-82
2022/11/05 02:46:50;;;;;;;;;;;;;;;9.12;100.00;101415.19;5081946;28;611;-82
2022/11/05 02:49:31;;;;;;;;;;;;;;;9.12;100.00;101413.38;5081362;28;1275;-82
2022/11/05 02:52:03;;;;;;;;;;;;;;;9.09;100.00;101412.72;5081555;28;581;-82
2022/11/05 02:54:41;;;;;;;;;;;;;;;9.06;100.00;101405.75;5081154;28;564;-82
2022/11/05 02:57:07;;;;;;;;;;;;;;;8.98;100.00;101412.56;5081444;28;580;-82
2022/11/05 02:59:33;;;;;;;;;;;;;;;8.90;100.00;101408.56;5080802;28;1897;-82
2022/11/05 03:02:01;;;;;;;;;;;;;;;8.89;100.00;101409.50;5081582;28;873;-82
2022/11/05 03:04:29;;;;;;;;;;;;;;;8.89;100.00;101403.31;5081359;28;902;-82
2022/11/05 03:07:10;;;;;;;;;;;;;;;8.85;100.00;101416.03;5062395;28;896;-82
2022/11/05 03:10:01;;;;;;;;;;;;;;;8.86;100.00;101409.72;5079945;28;1267;-82
2022/11/05 03:12:52;;;;;;;;;;;;;;;8.86;100.00;101416.88;5062759;28;849;-82
2022/11/05 03:15:55;;;;;;;;;;;;;;;8.83;100.00;101420.59;5080594;28;702;-82
2022/11/05 03:18:42;;;;;;;;;;;;;;;8.81;100.00;101411.81;5081145;28;2436;-82
2022/11/05 03:21:20;;;;;;;;;;;;;;;8.74;100.00;101418.50;5072883;28;1878;-82
2022/11/05 03:23:57;;;;;;;;;;;;;;;8.72;100.00;101412.41;5081604;28;710;-82
2022/11/05 03:26:42;;;;;;;;;;;;;;;8.80;100.00;101411.91;5063010;28;808;-82
2022/11/05 03:29:15;;;;;;;;;;;;;;;8.79;100.00;101415.56;5080926;28;910;-82
2022/11/05 03:31:46;;;;;;;;;;;;;;;8.77;100.00;101415.66;5063022;28;769;-82
2022/11/05 03:34:15;;;;;;;;;;;;;;;8.68;100.00;101405.53;5081600;28;974;-82
2022/11/05 03:36:47;;;;;;;;;;;;;;;8.70;100.00;101414.31;5062906;28;905;-82
2022/11/05 03:39:19;;;;;;;;;;;;;;;8.68;100.00;101424.25;5062437;28;1283;-82
2022/11/05 03:41:49;;;;;;;;;;;;;;;8.66;100.00;101415.47;5080675;28;1878;-82
2022/11/05 03:44:26;;;;;;;;;;;;;;;8.44;100.00;101417.75;5062735;28;859;-82
2022/11/05 03:46:57;;;;;;;;;;;;;;;8.44;100.00;101413.28;5063062;28;988;-82
2022/11/05 03:49:37;;;;;;;;;;;;;;;8.45;100.00;101415.00;5061530;28;1220;-82
2022/11/05 03:52:10;;;;;;;;;;;;;;;8.41;100.00;101412.63;5063351;28;904;-82
2022/11/05 03:54:36;;;;;;;;;;;;;;;8.50;100.00;101423.59;5062581;28;848;-82
2022/11/05 03:57:05;;;;;;;;;;;;;;;8.57;100.00;101414.25;5080799;28;775;-82
2022/11/05 03:59:39;;;;;;;;;;;;;;;8.56;100.00;101415.22;5061578;28;1362;-82
2022/11/05 04:02:05;;;;;;;;;;;;;;;8.53;100.00;101422.53;5079548;28;1953;-82
2022/11/05 04:04:31;;;;;;;;;;;;;;;8.57;100.00;101429.44;5079950;28;925;-82
2022/11/05 04:15:11;;;;;;;;;;;;;;;8.53;100.00;101425.22;5080645;28;720;-82
2022/11/05 04:17:37;;;;;;;;;;;;;;;8.53;100.00;101422.53;5080374;28;2298;-82
2022/11/05 04:25:32;;;;;;;;;;;;;;;8.52;100.00;101435.06;5080345;28;586;-82
2022/11/05 04:27:59;;;;;;;;;;;;;;;8.54;100.00;101437.63;5061910;28;994;-82
2022/11/05 04:30:25;;;;;;;;;;;;;;;8.55;100.00;101431.31;5079610;28;1205;-82
2022/11/05 04:32:55;;;;;;;;;;;;;;;8.58;100.00;101437.34;5061784;28;848;-82
2022/11/05 04:35:22;;;;;;;;;;;;;;;8.57;100.00;101434.78;5080615;28;901;-82
2022/11/05 04:37:48;;;;;;;;;;;;;;;8.50;100.00;101442.31;5080497;28;728;-82
2022/11/05 04:40:14;;;;;;;;;;;;;;;8.50;100.00;101436.09;5061169;28;1879;-82
2022/11/05 04:42:39;;;;;;;;;;;;;;;8.46;100.00;101445.28;5062042;28;900;-82
2022/11/05 04:45:06;;;;;;;;;;;;;;;8.46;100.00;101446.16;5080128;28;814;-82
2022/11/05 04:47:32;;;;;;;;;;;;;;;8.44;100.00;101441.81;5062484;28;887;-82
2022/11/05 04:49:58;;;;;;;;;;;;;;;8.40;100.00;101448.34;5061968;28;1259;-82
2022/11/05 04:52:23;;;;;;;;;;;;;;;8.40;100.00;101451.00;5080846;28;894;-82
2022/11/05 04:54:49;;;;;;;;;;;;;;;8.44;100.00;101458.72;5080910;28;850;-82
2022/11/05 04:57:15;;;;;;;;;;;;;;;8.44;100.00;101461.41;5063200;28;833;-82
2022/11/05 04:59:41;;;;;;;;;;;;;;;8.47;100.00;101450.53;5080620;28;1271;-82
2022/11/05 05:02:07;;;;;;;;;;;;;;;8.53;100.00;101460.84;5080698;28;1944;-82
2022/11/05 05:04:33;;;;;;;;;;;;;;;8.54;100.00;101464.38;5062762;28;855;-82
2022/11/05 05:06:59;;;;;;;;;;;;;;;8.41;100.00;101463.41;5081254;28;882;-82
2022/11/05 05:09:25;;;;;;;;;;;;;;;8.34;100.00;101461.09;5080731;28;1188;-82
2022/11/05 05:11:51;;;;;;;;;;;;;;;8.29;100.00;101463.19;5080485;28;851;-82
2022/11/05 05:14:17;;;;;;;;;;;;;;;8.30;100.00;101475.59;5062698;28;942;-82
2022/11/05 05:16:43;;;;;;;;;;;;;;;8.26;100.00;101474.06;5080641;28;2262;-82
2022/11/05 05:19:09;;;;;;;;;;;;;;;8.20;100.00;101471.75;5079973;28;1185;-82
2022/11/05 05:21:38;;;;;;;;;;;;;;;8.28;100.00;101466.81;5080416;28;1897;-82
2022/11/05 05:24:10;;;;;;;;;;;;;;;8.19;100.00;101464.69;5081065;28;807;-82
2022/11/05 05:26:38;;;;;;;;;;;;;;;8.21;100.00;101467.28;5080583;28;628;-82
2022/11/05 05:29:05;;;;;;;;;;;;;;;8.18;100.00;101462.13;5080959;28;954;-81
2022/11/05 05:31:31;;;;;;;;;;;;;;;8.16;100.00;101459.53;5080893;28;1436;-82
2022/11/05 05:33:57;;;;;;;;;;;;;;;8.24;100.00;101462.59;5080623;28;709;-82
2022/11/05 05:36:23;;;;;;;;;;;;;;;8.22;100.00;101466.31;5080859;28;751;-82
2022/11/05 05:38:49;;;;;;;;;;;;;;;8.04;100.00;101469.13;5062396;28;852;-82
2022/11/05 05:41:16;;;;;;;;;;;;;;;8.14;100.00;101468.59;5080082;28;1957;-82
2022/11/05 05:43:42;;;;;;;;;;;;;;;8.08;100.00;101472.50;5080792;28;793;-82
2022/11/05 05:46:13;;;;;;;;;;;;;;;8.01;100.00;101473.81;5081630;28;831;-82
2022/11/05 05:48:40;;;;;;;;;;;;;;;7.99;100.00;101473.91;5081158;28;744;-82
2022/11/05 05:51:09;;;;;;;;;;;;;;;8.12;100.00;101481.19;5083498;28;1205;-82
2022/11/05 05:53:36;;;;;;;;;;;;;;;8.07;100.00;101477.94;5084826;28;882;-82
2022/11/05 05:56:02;;;;;;;;;;;;;;;8.07;100.00;101485.97;5067087;28;757;-82
2022/11/05 05:58:37;;;;;;;;;;;;;;;8.05;100.00;101486.03;5084471;28;827;-82
2022/11/05 06:01:06;;;;;;;;;;;;;;;8.11;100.00;101490.16;5084098;28;1875;-82
2022/11/05 06:03:33;;;;;;;;;;;;;;;8.14;100.00;101490.81;5090233;28;701;-81
2022/11/05 06:06:07;;;;;;;;;;;;;;;8.18;100.00;101496.88;5095086;28;1027;-82
2022/11/05 06:08:34;;;;;;;;;;;;;;;8.21;100.00;101496.66;5064025;28;896;-82
2022/11/05 06:11:02;;;;;;;;;;;;;;;8.24;100.00;101492.00;5081679;28;1177;-82
2022/11/05 06:13:28;;;;;;;;;;;;;;;8.26;100.00;101498.13;5081615;28;878;-82
2022/11/05 06:16:05;;;;;;;;;;;;;;;8.22;100.00;101501.06;5082290;28;822;-82
2022/11/05 06:18:32;;;;;;;;;;;;;;;8.25;100.00;101503.53;5081798;28;572;-82
2022/11/05 06:21:01;;;;;;;;;;;;;;;8.23;100.00;101508.13;5081844;28;1871;-82
2022/11/05 06:23:30;;;;;;;;;;;;;;;8.30;100.00;101505.00;5082398;28;839;-83
2022/11/05 06:25:59;;;;;;;;;;;;;;;8.24;100.00;101509.84;5082358;28;873;-82
2022/11/05 06:28:25;;;;;;;;;;;;;;;8.22;100.00;101509.06;5066649;28;860;-82
2022/11/05 06:30:50;;;;;;;;;;;;;;;8.20;100.00;101511.84;5063757;28;1251;-82
2022/11/05 06:33:16;;;;;;;;;;;;;;;8.23;100.00;101514.31;5081706;28;850;-82
2022/11/05 06:35:42;;;;;;;;;;;;;;;8.24;100.00;101515.19;5081917;28;913;-82
2022/11/05 06:38:08;;;;;;;;;;;;;;;8.12;100.00;101513.25;5082201;28;907;-82
2022/11/05 06:40:34;;;;;;;;;;;;;;;8.15;100.00;101523.75;5081340;28;1878;-82
2022/11/05 06:43:00;;;;;;;;;;;;;;;8.03;100.00;101518.19;5081454;28;831;-82
2022/11/05 06:45:26;;;;;;;;;;;;;;;8.10;100.00;101526.72;5081749;28;759;-82
2022/11/05 06:47:56;;;;;;;;;;;;;;;8.07;100.00;101529.56;5081776;28;835;-82
2022/11/05 06:50:24;;;;;;;;;;;;;;;8.13;100.00;101531.00;5081395;28;1184;-83
2022/11/05 06:52:55;;;;;;;;;;;;;;;8.02;100.00;101539.66;5081118;28;838;-82
2022/11/05 06:55:21;;;;;;;;;;;;;;;8.05;100.00;101536.78;5064132;28;932;-82
2022/11/05 06:57:48;;;;;;;;;;;;;;;8.17;100.00;101541.44;5081826;28;913;-82
2022/11/05 07:00:14;;;;;;;;;;;;;;;8.22;100.00;101550.03;5081469;28;1255;-82
2022/11/05 07:02:40;;;;;;;;;;;;;;;8.32;100.00;101553.00;5072966;28;1886;-82
2022/11/05 07:05:09;;;;;;;;;;;;;;;8.30;100.00;101547.75;5080379;28;724;-82
2022/11/05 07:07:40;;;;;;;;;;;;;;;8.46;100.00;101545.06;5062730;28;916;-82
2022/11/05 07:10:10;;;;;;;;;;;;;;;8.49;100.00;101549.38;5079911;28;1256;-82
2022/11/05 07:12:36;;;;;;;;;;;;;;;8.62;100.00;101551.19;5080567;28;787;-82
2022/11/05 07:15:01;;;;;;;;;;;;;;;8.68;100.00;101544.63;5080436;28;775;-82
2022/11/05 07:17:27;;;;;;;;;;;;;;;8.61;100.00;101552.16;5058530;28;2334;-82
2022/11/05 07:19:53;;;;;;;;;;;;;;;8.59;100.00;101556.72;5042871;28;1271;-82
2022/11/05 07:22:19;;;;;;;;;;;;;;;8.37;100.00;101559.00;5061027;28;1867;-82
2022/11/05 07:24:46;;;;;;;;;;;;;;;8.58;100.00;101568.38;5060483;28;890;-82
2022/11/05 07:27:13;;;;;;;;;;;;;;;8.58;100.00;101562.19;5060981;28;578;-82
2022/11/05 07:29:39;;;;;;;;;;;;;;;8.48;100.00;101566.34;5061704;28;1260;-82
2022/11/05 07:32:05;;;;;;;;;;;;;;;8.67;100.00;101561.63;5061832;28;835;-82
2022/11/05 07:34:31;;;;;;;;;;;;;;;8.72;100.00;101558.66;5060052;28;926;-82
2022/11/05 07:36:57;;;;;;;;;;;;;;;8.59;100.00;101570.09;5060549;28;929;-82
2022/11/05 07:39:23;;;;;;;;;;;;;;;8.81;100.00;101568.78;5042067;28;1275;-82
2022/11/05 07:41:56;;;;;;;;;;;;;;;8.85;100.00;101568.53;5042269;28;1957;-82
2022/11/05 07:44:23;;;;;;;;;;;;;;;8.79;100.00;101571.56;5061177;28;554;-82
2022/11/05 07:46:49;;;;;;;;;;;;;;;8.68;100.00;101574.03;5060783;28;858;-82
2022/11/05 07:49:16;;;;;;;;;;;;;;;8.70;100.00;101573.94;5059895;28;1259;-82
2022/11/05 07:51:42;;;;;;;;;;;;;;;8.72;100.00;101583.56;5060457;28;893;-82
2022/11/05 07:54:09;;;;;;;;;;;;;;;8.85;100.00;101573.88;5060225;28;859;-82
2022/11/05 07:56:35;;;;;;;;;;;;;;;8.91;100.00;101568.13;5060105;28;850;-82
2022/11/05 07:59:01;;;;;;;;;;;;;;;8.99;100.00;101570.31;5059865;28;804;-82
2022/11/05 08:01:27;;;;;;;;;;;;;;;9.11;100.00;101576.72;5059574;28;1890;-82
2022/11/05 08:03:53;;;;;;;;;;;;;;;9.26;100.00;101574.91;5060352;28;847;-82
2022/11/05 08:06:19;;;;;;;;;;;;;;;9.27;100.00;101572.13;5060780;28;768;-82
2022/11/05 08:08:45;;;;;;;;;;;;;;;9.30;100.00;101566.56;5061574;28;867;-82
2022/11/05 08:11:11;;;;;;;;;;;;;;;9.30;100.00;101571.06;5060433;28;1176;-82
2022/11/05 08:13:37;;;;;;;;;;;;;;;9.31;100.00;101570.13;5059948;28;716;-83
2022/11/05 08:16:04;;;;;;;;;;;;;;;9.44;100.00;101573.75;5061916;28;2152;-83
2022/11/05 08:18:31;;;;;;;;;;;;;;;9.32;100.00;101575.38;5082262;28;830;-83
2022/11/05 08:20:59;;;;;;;;;;;;;;;9.57;100.00;101579.16;5081446;28;1252;-82
2022/11/05 08:23:26;;;;;;;;;;;;;;;9.62;100.00;101579.72;5080617;28;874;-82
2022/11/05 08:25:53;;;;;;;;;;;;;;;9.48;100.00;101573.44;5081973;28;740;-82
2022/11/05 08:28:20;;;;;;;;;;;;;;;9.36;100.00;101578.72;5081257;28;917;-83
2022/11/05 08:30:51;;;;;;;;;;;;;;;9.48;100.00;101568.09;5078336;28;1213;-82
2022/11/05 08:33:19;;;;;;;;;;;;;;;9.58;100.00;101578.22;5085126;28;1111;-83
2022/11/05 08:35:46;;;;;;;;;;;;;;;9.80;100.00;101580.34;5084919;28;1494;-83
2022/11/05 08:38:14;;;;;;;;;;;;;;;9.82;100.00;101573.06;5087435;28;812;-83
2022/11/05 08:40:42;;;;;;;;;;;;;;;10.02;100.00;101576.13;5089300;28;1264;-83
2022/11/05 08:43:10;;;;;;;;;;;;;;;10.09;100.00;101573.06;5089158;28;1947;-82
2022/11/05 08:45:37;;;;;;;;;;;;;;;10.15;100.00;101572.66;5071273;28;844;-83
2022/11/05 08:48:08;;;;;;;;;;;;;;;10.10;100.00;101580.13;5081646;28;657;-83
2022/11/05 08:50:36;;;;;;;;;;;;;;;10.39;100.00;101586.25;5081412;28;1177;-83
2022/11/05 08:53:03;;;;;;;;;;;;;;;10.57;100.00;101579.63;5082414;28;823;-83
2022/11/05 08:55:29;;;;;;;;;;;;;;;11.42;100.00;101578.09;5081997;28;811;-83
2022/11/05 08:58:00;;;;;;;;;;;;;;;11.70;100.00;101576.91;5081649;28;767;-83
2022/11/05 09:00:28;;;;;;;;;;;;;;;11.90;100.00;101575.50;5081511;28;1259;-83
2022/11/05 09:02:54;;;;;;;;;;;;;;;11.69;100.00;101580.59;5082946;28;1894;-83
2022/11/05 09:05:20;;;;;;;;;;;;;;;11.42;100.00;101573.59;5085535;28;913;-83
2022/11/05 09:07:46;;;;;;;;;;;;;;;11.22;100.00;101584.91;5082768;28;813;-83
2022/11/05 09:10:12;;;;;;;;;;;;;;;10.80;100.00;101586.94;5081903;28;1216;-83
2022/11/05 09:12:38;;;;;;;;;;;;;;;10.87;100.00;101582.00;5082895;28;846;-83
2022/11/05 09:15:04;;;;;;;;;;;;;;;11.06;100.00;101590.50;5082829;28;736;-83
2022/11/05 09:17:30;;;;;;;;;;;;;;;10.87;100.00;101587.38;5083684;28;2365;-83
2022/11/05 09:19:56;;;;;;;;;;;;;;;11.13;100.00;101597.16;5082858;28;1192;-83
2022/11/05 09:22:22;;;;;;;;;;;;;;;11.22;100.00;101601.03;5085298;28;1867;-84
2022/11/05 09:24:48;;;;;;;;;;;;;;;11.48;100.00;101596.44;5068188;28;862;-83
2022/11/05 09:27:14;;;;;;;;;;;;;;;11.16;100.00;101590.69;5090186;28;881;-83
2022/11/05 09:29:41;;;;;;;;;;;;;;;11.18;100.00;101589.63;5071399;28;1288;-83
2022/11/05 09:32:07;;;;;;;;;;;;;;;11.53;100.00;101590.75;5084854;28;713;-83
2022/11/05 09:34:33;;;;;;;;;;;;;;;11.70;100.00;101585.88;5085670;28;643;-83
2022/11/05 09:37:00;;;;;;;;;;;;;;;11.92;100.00;101585.19;5063754;28;914;-82
2022/11/05 09:39:26;;;;;;;;;;;;;;;11.80;100.00;101591.47;5081861;28;1283;-82
2022/11/05 09:41:58;;;;;;;;;;;;;;;11.94;100.00;101587.75;5064287;28;1952;-83
2022/11/05 09:44:36;;;;;;;;;;;;;;;11.99;100.00;101590.94;5082779;28;542;-83
2022/11/05 09:47:06;;;;;;;;;;;;;;;12.06;100.00;101589.50;5082716;28;544;-83
2022/11/05 09:49:43;;;;;;;;;;;;;;;12.11;100.00;101597.25;5082764;28;1204;-83
2022/11/05 09:52:14;;;;;;;;;;;;;;;12.18;100.00;101598.47;5082988;28;543;-83
2022/11/05 09:54:40;;;;;;;;;;;;;;;12.33;100.00;101594.66;5083273;28;538;-83
2022/11/05 09:57:14;;;;;;;;;;;;;;;12.46;100.00;101602.63;5083914;28;920;-83
2022/11/05 09:59:48;;;;;;;;;;;;;;;12.27;100.00;101603.16;5082546;28;1264;-83
2022/11/05 10:02:22;;;;;;;;;;;;;;;12.68;100.00;101604.53;5082034;28;1886;-83
2022/11/05 10:04:58;;;;;;;;;;;;;;;12.83;100.00;101603.34;5084782;28;592;-83
2022/11/05 10:07:28;;;;;;;;;;;;;;;12.93;100.00;101601.66;5084153;28;537;-84
2022/11/05 10:09:59;;;;;;;;;;;;;;;12.93;100.00;101607.03;5083912;28;1215;-84
2022/11/05 10:12:31;;;;;;;;;;;;;;;12.93;100.00;101609.75;5084895;28;557;-83
2022/11/05 10:15:02;;;;;;;;;;;;;;;12.59;100.00;101598.91;5084609;28;593;-83
2022/11/05 10:17:30;;;;;;;;;;;;;;;12.89;100.00;101602.88;5067112;28;761;-83
2022/11/05 10:20:14;;;;;;;;;;;;;;;13.07;100.00;101601.41;5066452;28;1291;-84
2022/11/05 10:22:40;;;;;;;;;;;;;;;13.21;100.00;101603.06;5086622;28;1870;-84
2022/11/05 10:25:17;;;;;;;;;;;;;;;13.25;100.00;101606.38;5086536;28;807;-83
2022/11/05 10:27:50;;;;;;;;;;;;;;;13.46;100.00;101599.25;5084283;28;595;-83
2022/11/05 10:30:16;;;;;;;;;;;;;;;13.55;100.00;101594.97;5067243;28;1220;-84
2022/11/05 10:32:43;;;;;;;;;;;;;;;13.57;100.00;101598.38;5085402;28;752;-84
2022/11/05 10:35:17;;;;;;;;;;;;;;;13.62;100.00;101604.28;5071003;28;956;-84
2022/11/05 10:37:46;;;;;;;;;;;;;;;13.56;100.00;101594.84;5066496;28;832;-84
2022/11/05 10:40:38;;;;;;;;;;;;;;;13.64;100.00;101602.31;5084090;28;1212;-84
2022/11/05 10:43:08;;;;;;;;;;;;;;;13.78;100.00;101602.91;5065747;28;1951;-83
2022/11/05 10:45:48;;;;;;;;;;;;;;;13.69;100.00;101600.97;5084748;28;791;-83
2022/11/05 10:48:26;;;;;;;;;;;;;;;14.15;100.00;101602.53;5084365;28;562;-84
2022/11/05 10:50:53;;;;;;;;;;;;;;;14.15;100.00;101601.69;5082954;28;1248;-84
2022/11/05 10:53:25;;;;;;;;;;;;;;;14.26;100.00;101605.22;5065101;28;863;-84
2022/11/05 10:55:53;;;;;;;;;;;;;;;14.55;100.00;101607.31;5083154;28;541;-83
2022/11/05 10:58:22;;;;;;;;;;;;;;;14.10;100.00;101609.31;5083626;28;775;-84
2022/11/05 11:00:50;;;;;;;;;;;;;;;14.02;100.00;101612.66;5083624;28;1279;-84
2022/11/05 11:03:41;;;;;;;;;;;;;;;14.37;100.00;101615.13;5065440;28;1874;-84
2022/11/05 11:06:23;;;;;;;;;;;;;;;14.70;100.00;101607.84;5084065;28;791;-84
2022/11/05 11:08:51;;;;;;;;;;;;;;;15.05;100.00;101607.53;5084899;28;564;-84
2022/11/05 11:11:27;;;;;;;;;;;;;;;14.05;100.00;101621.34;5067593;28;1244;-83
2022/11/05 11:13:56;;;;;;;;;;;;;;;14.15;100.00;101612.47;5089551;28;578;-84
2022/11/05 11:16:25;;;;;;;;;;;;;;;14.73;100.00;101610.28;5089304;28;2301;-83
2022/11/05 11:18:59;;;;;;;;;;;;;;;14.81;100.00;101614.03;5084999;28;924;-84
2022/11/05 11:21:27;;;;;;;;;;;;;;;14.91;100.00;101595.19;5083928;28;1355;-84
2022/11/05 11:24:02;;;;;;;;;;;;;;;14.74;100.00;101606.59;5084830;28;1878;-83
2022/11/05 11:26:37;;;;;;;;;;;;;;;14.47;100.00;101605.28;5083987;28;1395;-83
2022/11/05 11:29:21;;;;;;;;;;;;;;;14.71;100.00;101602.31;5082022;28;1374;-83
2022/11/05 11:31:48;;;;;;;;;;;;;;;14.56;100.00;101603.66;5073143;28;1426;-83
2022/11/05 11:34:28;;;;;;;;;;;;;;;14.80;100.00;101614.19;5061787;28;1358;-84
2022/11/05 11:37:03;;;;;;;;;;;;;;;15.15;100.00;101597.63;5079209;28;553;-83
2022/11/05 11:39:30;;;;;;;;;;;;;;;15.32;100.00;101607.78;5078768;28;1630;-84
2022/11/05 11:42:05;;;;;;;;;;;;;;;15.18;100.00;101598.19;5079068;28;1894;-84
2022/11/05 11:44:39;;;;;;;;;;;;;;;15.40;100.00;101597.16;5078993;28;1486;-84
2022/11/05 11:47:14;;;;;;;;;;;;;;;14.55;100.00;101607.31;5059104;28;1633;-83
2022/11/05 11:49:40;;;;;;;;;;;;;;;14.89;100.00;101591.78;5077759;28;1745;-83
2022/11/05 11:52:12;;;;;;;;;;;;;;;15.15;100.00;101603.88;5079701;28;755;-83
2022/11/05 11:54:38;;;;;;;;;;;;;;;15.54;100.00;101603.19;5080076;28;874;-83
2022/11/05 11:57:26;;;;;;;;;;;;;;;15.58;100.00;101610.88;5060931;28;808;-83
2022/11/05 11:59:54;;;;;;;;;;;;;;;15.61;100.00;101605.22;5078202;28;1208;-83
2022/11/05 12:02:55;;;;;;;;;;;;;;;15.34;100.00;101602.22;5060387;28;1875;-83
2022/11/05 12:05:33;;;;;;;;;;;;;;;15.76;100.00;101595.75;5060589;28;889;-84
2022/11/05 12:08:33;;;;;;;;;;;;;;;15.97;100.00;101590.22;5060634;28;760;-84
2022/11/05 12:11:14;;;;;;;;;;;;;;;15.81;100.00;101589.91;5078998;28;1366;-84
2022/11/05 12:13:55;;;;;;;;;;;;;;;16.15;100.00;101592.25;5079447;28;526;-83
2022/11/05 12:16:54;;;;;;;;;;;;;;;15.71;100.00;101591.72;5079227;28;678;-83
2022/11/05 12:20:01;;;;;;;;;;;;;;;16.01;100.00;101588.06;5078948;28;1264;-83
2022/11/05 12:23:05;;;;;;;;;;;;;;;16.13;100.00;101595.09;5079182;28;1886;-83
2022/11/05 12:25:53;;;;;;;;;;;;;;;16.58;100.00;101594.50;5060562;28;824;-84
2022/11/05 12:28:55;;;;;;;;;;;;;;;16.12;100.00;101598.78;5079712;28;550;-84
2022/11/05 12:31:56;;;;;;;;;;;;;;;16.31;100.00;101598.78;5077357;28;1374;-83
2022/11/05 12:34:42;;;;;;;;;;;;;;;16.43;100.00;101604.94;5081730;28;733;-84
2022/11/05 12:37:33;;;;;;;;;;;;;;;16.66;100.00;101601.91;5082120;28;616;-84
2022/11/05 12:40:24;;;;;;;;;;;;;;;16.50;100.00;101594.38;5082035;28;1354;-84
2022/11/05 12:43:13;;;;;;;;;;;;;;;16.45;100.00;101612.91;5081771;28;1897;-83
2022/11/05 12:46:04;;;;;;;;;;;;;;;16.67;100.00;101600.91;5066792;28;1040;-83
2022/11/05 12:48:48;;;;;;;;;;;;;;;16.67;100.00;101609.03;5062841;28;903;-84
2022/11/05 12:51:23;;;;;;;;;;;;;;;16.51;100.00;101612.31;5078004;28;1286;-83
2022/11/05 12:54:04;;;;;;;;;;;;;;;16.23;100.00;101609.50;5078729;28;577;-83
2022/11/05 12:56:30;;;;;;;;;;;;;;;15.58;100.00;101610.88;5078215;28;625;-83
2022/11/05 12:59:10;;;;;;;;;;;;;;;16.12;100.00;101601.47;5062044;28;914;-83
2022/11/05 13:01:42;;;;;;;;;;;;;;;16.43;100.00;101618.47;5082278;28;544;-83
2022/11/05 13:04:40;;;;;;;;;;;;;;;16.10;100.00;101606.19;5065284;28;1951;-84
2022/11/05 13:07:13;;;;;;;;;;;;;;;15.95;100.00;101610.31;5078277;28;1294;-83
2022/11/05 13:09:49;;;;;;;;;;;;;;;16.45;100.00;101599.38;5063360;28;1266;-83
2022/11/05 13:12:20;;;;;;;;;;;;;;;16.22;100.00;101598.78;5063647;28;949;-83
2022/11/05 13:14:55;;;;;;;;;;;;;;;16.40;100.00;101602.50;5082390;28;538;-82
2022/11/05 13:17:24;;;;;;;;;;;;;;;15.92;100.00;101595.19;5062229;28;902;-84
2022/11/05 13:20:04;;;;;;;;;;;;;;;15.55;100.00;101591.38;5062203;28;1275;-84
2022/11/05 13:22:52;;;;;;;;;;;;;;;15.62;100.00;101595.25;5062304;28;1961;-83
2022/11/05 13:25:27;;;;;;;;;;;;;;;15.49;100.00;101590.91;5064092;28;579;-83
2022/11/05 13:28:25;;;;;;;;;;;;;;;15.33;100.00;101585.16;5063842;28;796;-83
2022/11/05 13:30:56;;;;;;;;;;;;;;;15.47;100.00;101594.75;5061696;28;1298;-83
2022/11/05 13:33:25;;;;;;;;;;;;;;;14.86;100.00;101582.09;5061050;28;834;-83
2022/11/05 13:38:58;;;;;;;;;;;;;;;15.14;100.00;101585.97;5062877;28;602;-83
2022/11/05 13:41:48;;;;;;;;;;;;;;;15.07;100.00;101590.19;5061430;28;1311;-83
2022/11/05 13:44:35;;;;;;;;;;;;;;;15.20;100.00;101589.94;5044178;28;1949;-83
2022/11/05 13:47:19;;;;;;;;;;;;;;;15.02;100.00;101588.84;5062449;28;593;-83
2022/11/05 13:50:11;;;;;;;;;;;;;;;15.13;100.00;101589.63;5060658;28;1268;-83
2022/11/05 13:52:58;;;;;;;;;;;;;;;15.71;100.00;101584.47;5061616;28;651;-83